sensor_id;sensor_type;location;lat;lon;timestamp;temperature;humidity
45843;DHT22;31563;51.744;8.252;2022-10-20T00:01:06;22.70;48.70
45843;DHT22;31563;51.744;8.252;2022-10-20T00:03:35;22.60;48.70
45843;DHT22;31563;51.744;8.252;2022-10-20T00:06:08;22.60;48.70
45843;DHT22;31563;51.744;8.252;2022-10-20T00:08:37;22.60;48.80
45843;DHT22;31563;51.744;8.252;2022-10-20T00:11:06;22.50;48.70
45843;DHT22;31563;51.744;8.252;2022-10-20T00:13:34;22.50;48.80
45843;DHT22;31563;51.744;8.252;2022-10-20T00:16:02;22.50;48.70
45843;DHT22;31563;51.744;8.252;2022-10-20T00:18:31;22.40;48.80
45843;DHT22;31563;51.744;8.252;2022-10-20T00:20:59;22.40;48.70
45843;DHT22;31563;51.744;8.252;2022-10-20T00:23:28;22.40;48.80
45843;DHT22;31563;51.744;8.252;2022-10-20T00:26:01;22.30;48.80
45843;DHT22;31563;51.744;8.252;2022-10-20T00:28:29;22.30;48.80
45843;DHT22;31563;51.744;8.252;2022-10-20T00:30:58;22.30;48.90
45843;DHT22;31563;51.744;8.252;2022-10-20T00:33:26;22.30;48.90
45843;DHT22;31563;51.744;8.252;2022-10-20T00:35:57;22.30;48.90
45843;DHT22;31563;51.744;8.252;2022-10-20T00:38:25;22.30;49.00
45843;DHT22;31563;51.744;8.252;2022-10-20T00:40:54;22.20;48.90
45843;DHT22;31563;51.744;8.252;2022-10-20T00:43:25;22.20;48.90
45843;DHT22;31563;51.744;8.252;2022-10-20T00:45:55;22.20;49.00
45843;DHT22;31563;51.744;8.252;2022-10-20T00:48:26;22.20;49.00
45843;DHT22;31563;51.744;8.252;2022-10-20T00:50:56;22.10;48.90
45843;DHT22;31563;51.744;8.252;2022-10-20T00:53:27;22.10;48.90
45843;DHT22;31563;51.744;8.252;2022-10-20T00:55:58;22.10;49.00
45843;DHT22;31563;51.744;8.252;2022-10-20T00:58:27;22.10;48.90
45843;DHT22;31563;51.744;8.252;2022-10-20T01:00:57;22.00;48.90
45843;DHT22;31563;51.744;8.252;2022-10-20T01:03:29;22.00;49.00
45843;DHT22;31563;51.744;8.252;2022-10-20T01:06:01;22.00;49.00
45843;DHT22;31563;51.744;8.252;2022-10-20T01:08:30;22.00;49.00
45843;DHT22;31563;51.744;8.252;2022-10-20T01:11:08;22.00;49.00
45843;DHT22;31563;51.744;8.252;2022-10-20T01:13:50;22.00;49.00
45843;DHT22;31563;51.744;8.252;2022-10-20T01:16:27;21.90;49.00
45843;DHT22;31563;51.744;8.252;2022-10-20T01:19:02;21.90;49.10
45843;DHT22;31563;51.744;8.252;2022-10-20T01:21:53;21.90;49.00
45843;DHT22;31563;51.744;8.252;2022-10-20T01:24:37;21.90;49.00
45843;DHT22;31563;51.744;8.252;2022-10-20T01:27:32;21.80;49.00
45843;DHT22;31563;51.744;8.252;2022-10-20T01:30:09;21.80;49.00
45843;DHT22;31563;51.744;8.252;2022-10-20T01:32:50;21.80;49.00
45843;DHT22;31563;51.744;8.252;2022-10-20T01:35:25;21.80;49.00
45843;DHT22;31563;51.744;8.252;2022-10-20T01:38:03;21.80;49.10
45843;DHT22;31563;51.744;8.252;2022-10-20T01:40:36;21.70;49.10
45843;DHT22;31563;51.744;8.252;2022-10-20T01:43:11;21.70;49.20
45843;DHT22;31563;51.744;8.252;2022-10-20T01:45:43;21.70;49.20
45843;DHT22;31563;51.744;8.252;2022-10-20T01:48:13;21.70;49.20
45843;DHT22;31563;51.744;8.252;2022-10-20T01:50:45;21.60;49.20
45843;DHT22;31563;51.744;8.252;2022-10-20T01:53:13;21.60;49.10
45843;DHT22;31563;51.744;8.252;2022-10-20T01:55:42;21.60;49.20
45843;DHT22;31563;51.744;8.252;2022-10-20T01:58:43;21.60;49.20
45843;DHT22;31563;51.744;8.252;2022-10-20T02:01:23;21.50;49.80
45843;DHT22;31563;51.744;8.252;2022-10-20T02:03:57;21.50;49.20
45843;DHT22;31563;51.744;8.252;2022-10-20T02:06:34;21.50;49.30
45843;DHT22;31563;51.744;8.252;2022-10-20T02:09:05;21.50;49.30
45843;DHT22;31563;51.744;8.252;2022-10-20T02:11:40;21.40;49.20
45843;DHT22;31563;51.744;8.252;2022-10-20T02:14:12;21.50;49.30
45843;DHT22;31563;51.744;8.252;2022-10-20T02:16:43;21.40;49.20
45843;DHT22;31563;51.744;8.252;2022-10-20T02:19:15;21.00;48.50
45843;DHT22;31563;51.744;8.252;2022-10-20T02:21:44;21.30;49.10
45843;DHT22;31563;51.744;8.252;2022-10-20T02:24:15;21.30;85.70
45843;DHT22;31563;51.744;8.252;2022-10-20T02:26:44;21.30;49.20
45843;DHT22;31563;51.744;8.252;2022-10-20T02:29:15;21.70;84.80
45843;DHT22;31563;51.744;8.252;2022-10-20T02:31:45;21.30;84.90
45843;DHT22;31563;51.744;8.252;2022-10-20T02:34:13;21.20;49.30
45843;DHT22;31563;51.744;8.252;2022-10-20T02:36:42;21.20;49.30
45843;DHT22;31563;51.744;8.252;2022-10-20T02:39:11;21.20;49.40
45843;DHT22;31563;51.744;8.252;2022-10-20T02:41:39;21.60;84.40
45843;DHT22;31563;51.744;8.252;2022-10-20T02:44:07;21.10;50.00
45843;DHT22;31563;51.744;8.252;2022-10-20T02:46:37;21.10;81.00
45843;DHT22;31563;51.744;8.252;2022-10-20T02:49:05;21.20;76.20
45843;DHT22;31563;51.744;8.252;2022-10-20T02:51:33;21.10;72.50
45843;DHT22;31563;51.744;8.252;2022-10-20T02:54:01;21.60;75.70
45843;DHT22;31563;51.744;8.252;2022-10-20T02:56:29;21.00;48.90
45843;DHT22;31563;51.744;8.252;2022-10-20T02:58:57;21.00;49.40
45843;DHT22;31563;51.744;8.252;2022-10-20T03:01:25;21.00;49.40
45843;DHT22;31563;51.744;8.252;2022-10-20T03:03:55;21.00;49.50
45843;DHT22;31563;51.744;8.252;2022-10-20T03:06:25;21.00;49.50
45843;DHT22;31563;51.744;8.252;2022-10-20T03:08:54;21.00;49.50
45843;DHT22;31563;51.744;8.252;2022-10-20T03:11:23;20.90;49.40
45843;DHT22;31563;51.744;8.252;2022-10-20T03:13:52;20.90;49.50
45843;DHT22;31563;51.744;8.252;2022-10-20T03:16:20;20.90;49.40
45843;DHT22;31563;51.744;8.252;2022-10-20T03:18:48;20.90;49.40
45843;DHT22;31563;51.744;8.252;2022-10-20T03:21:18;20.90;49.50
45843;DHT22;31563;51.744;8.252;2022-10-20T03:23:47;20.90;49.60
45843;DHT22;31563;51.744;8.252;2022-10-20T03:26:15;20.80;49.40
45843;DHT22;31563;51.744;8.252;2022-10-20T03:28:43;20.80;49.40
45843;DHT22;31563;51.744;8.252;2022-10-20T03:31:11;20.80;49.50
45843;DHT22;31563;51.744;8.252;2022-10-20T03:33:39;20.80;49.40
45843;DHT22;31563;51.744;8.252;2022-10-20T03:36:08;20.80;49.50
45843;DHT22;31563;51.744;8.252;2022-10-20T03:38:40;20.70;49.50
45843;DHT22;31563;51.744;8.252;2022-10-20T03:41:09;20.70;49.50
45843;DHT22;31563;51.744;8.252;2022-10-20T03:43:38;20.70;49.50
45843;DHT22;31563;51.744;8.252;2022-10-20T03:46:08;20.70;49.50
45843;DHT22;31563;51.744;8.252;2022-10-20T03:48:36;20.70;49.50
45843;DHT22;31563;51.744;8.252;2022-10-20T03:51:06;20.70;49.60
45843;DHT22;31563;51.744;8.252;2022-10-20T03:53:35;20.70;49.50
45843;DHT22;31563;51.744;8.252;2022-10-20T03:56:06;20.60;49.50
45843;DHT22;31563;51.744;8.252;2022-10-20T03:58:35;20.60;49.60
45843;DHT22;31563;51.744;8.252;2022-10-20T04:01:03;20.60;49.70
45843;DHT22;31563;51.744;8.252;2022-10-20T04:03:32;20.60;49.60
45843;DHT22;31563;51.744;8.252;2022-10-20T04:06:00;20.60;49.70
45843;DHT22;31563;51.744;8.252;2022-10-20T04:08:28;20.50;49.60
45843;DHT22;31563;51.744;8.252;2022-10-20T04:10:57;20.60;49.60
45843;DHT22;31563;51.744;8.252;2022-10-20T04:13:26;20.50;49.60
45843;DHT22;31563;51.744;8.252;2022-10-20T04:15:55;20.50;49.70
45843;DHT22;31563;51.744;8.252;2022-10-20T04:18:23;20.50;49.70
45843;DHT22;31563;51.744;8.252;2022-10-20T04:20:51;20.40;49.60
45843;DHT22;31563;51.744;8.252;2022-10-20T04:23:19;20.40;49.80
45843;DHT22;31563;51.744;8.252;2022-10-20T04:25:47;20.40;49.70
45843;DHT22;31563;51.744;8.252;2022-10-20T04:28:17;20.40;49.70
45843;DHT22;31563;51.744;8.252;2022-10-20T04:30:46;20.40;49.70
45843;DHT22;31563;51.744;8.252;2022-10-20T04:33:15;20.30;49.60
45843;DHT22;31563;51.744;8.252;2022-10-20T04:35:43;20.40;49.80
45843;DHT22;31563;51.744;8.252;2022-10-20T04:38:11;20.30;49.70
45843;DHT22;31563;51.744;8.252;2022-10-20T04:40:39;20.30;49.70
45843;DHT22;31563;51.744;8.252;2022-10-20T04:43:07;20.30;49.80
45843;DHT22;31563;51.744;8.252;2022-10-20T04:45:36;20.20;49.70
45843;DHT22;31563;51.744;8.252;2022-10-20T04:48:06;20.20;49.70
45843;DHT22;31563;51.744;8.252;2022-10-20T04:50:34;20.20;49.70
45843;DHT22;31563;51.744;8.252;2022-10-20T04:53:02;20.20;49.70
45843;DHT22;31563;51.744;8.252;2022-10-20T04:55:30;20.20;49.70
45843;DHT22;31563;51.744;8.252;2022-10-20T04:57:58;20.10;49.80
45843;DHT22;31563;51.744;8.252;2022-10-20T05:00:26;20.20;49.80
45843;DHT22;31563;51.744;8.252;2022-10-20T05:02:54;20.10;49.70
45843;DHT22;31563;51.744;8.252;2022-10-20T05:05:24;20.10;49.70
45843;DHT22;31563;51.744;8.252;2022-10-20T05:07:52;20.10;49.70
45843;DHT22;31563;51.744;8.252;2022-10-20T05:10:20;20.00;49.70
45843;DHT22;31563;51.744;8.252;2022-10-20T05:12:48;20.00;49.70
45843;DHT22;31563;51.744;8.252;2022-10-20T05:15:16;20.00;49.80
45843;DHT22;31563;51.744;8.252;2022-10-20T05:17:45;20.00;49.70
45843;DHT22;31563;51.744;8.252;2022-10-20T05:20:13;20.00;49.80
45843;DHT22;31563;51.744;8.252;2022-10-20T05:22:42;20.00;49.80
45843;DHT22;31563;51.744;8.252;2022-10-20T05:25:10;19.90;49.80
45843;DHT22;31563;51.744;8.252;2022-10-20T05:27:58;19.90;49.70
45843;DHT22;31563;51.744;8.252;2022-10-20T05:30:27;19.90;49.70
45843;DHT22;31563;51.744;8.252;2022-10-20T05:32:55;19.90;49.70
45843;DHT22;31563;51.744;8.252;2022-10-20T05:35:23;19.90;49.70
45843;DHT22;31563;51.744;8.252;2022-10-20T05:37:53;19.80;49.70
45843;DHT22;31563;51.744;8.252;2022-10-20T05:40:21;19.80;49.70
45843;DHT22;31563;51.744;8.252;2022-10-20T05:42:49;19.80;49.80
45843;DHT22;31563;51.744;8.252;2022-10-20T05:45:17;19.80;49.70
45843;DHT22;31563;51.744;8.252;2022-10-20T05:47:45;19.80;49.90
45843;DHT22;31563;51.744;8.252;2022-10-20T05:50:14;19.80;49.80
45843;DHT22;31563;51.744;8.252;2022-10-20T05:52:42;19.80;49.80
45843;DHT22;31563;51.744;8.252;2022-10-20T05:55:11;19.70;49.70
45843;DHT22;31563;51.744;8.252;2022-10-20T05:57:39;19.80;49.70
45843;DHT22;31563;51.744;8.252;2022-10-20T06:00:09;19.70;49.60
45843;DHT22;31563;51.744;8.252;2022-10-20T06:02:37;19.70;67.60
45843;DHT22;31563;51.744;8.252;2022-10-20T06:05:06;19.40;81.60
45843;DHT22;31563;51.744;8.252;2022-10-20T06:10:03;19.60;78.80
45843;DHT22;31563;51.744;8.252;2022-10-20T06:15:03;19.40;84.20
45843;DHT22;31563;51.744;8.252;2022-10-20T06:34:52;19.50;49.20
45843;DHT22;31563;51.744;8.252;2022-10-20T06:37:20;19.50;49.70
45843;DHT22;31563;51.744;8.252;2022-10-20T06:39:48;19.50;49.70
45843;DHT22;31563;51.744;8.252;2022-10-20T06:42:17;19.60;49.80
45843;DHT22;31563;51.744;8.252;2022-10-20T06:44:45;19.70;49.70
45843;DHT22;31563;51.744;8.252;2022-10-20T06:47:14;19.70;49.50
45843;DHT22;31563;51.744;8.252;2022-10-20T06:49:42;19.70;49.40
45843;DHT22;31563;51.744;8.252;2022-10-20T06:52:10;19.70;49.30
45843;DHT22;31563;51.744;8.252;2022-10-20T06:54:38;19.80;49.10
45843;DHT22;31563;51.744;8.252;2022-10-20T06:57:07;19.80;49.20
45843;DHT22;31563;51.744;8.252;2022-10-20T06:59:35;19.80;49.00
45843;DHT22;31563;51.744;8.252;2022-10-20T07:02:04;19.80;49.00
45843;DHT22;31563;51.744;8.252;2022-10-20T07:04:34;19.90;48.90
45843;DHT22;31563;51.744;8.252;2022-10-20T07:07:02;19.90;48.90
45843;DHT22;31563;51.744;8.252;2022-10-20T07:09:30;19.90;48.80
45843;DHT22;31563;51.744;8.252;2022-10-20T07:11:58;20.00;48.70
45843;DHT22;31563;51.744;8.252;2022-10-20T07:14:26;20.00;48.70
45843;DHT22;31563;51.744;8.252;2022-10-20T07:16:58;20.00;48.80
45843;DHT22;31563;51.744;8.252;2022-10-20T07:19:26;20.00;48.60
45843;DHT22;31563;51.744;8.252;2022-10-20T07:21:55;20.10;48.70
45843;DHT22;31563;51.744;8.252;2022-10-20T07:24:23;20.10;49.10
45843;DHT22;31563;51.744;8.252;2022-10-20T07:26:52;20.10;48.30
45843;DHT22;31563;51.744;8.252;2022-10-20T07:29:20;20.20;48.30
45843;DHT22;31563;51.744;8.252;2022-10-20T07:31:48;20.20;48.30
45843;DHT22;31563;51.744;8.252;2022-10-20T07:34:17;20.30;48.30
45843;DHT22;31563;51.744;8.252;2022-10-20T07:36:54;20.30;48.20
45843;DHT22;31563;51.744;8.252;2022-10-20T07:39:23;20.30;48.80
45843;DHT22;31563;51.744;8.252;2022-10-20T07:41:51;20.30;48.10
45843;DHT22;31563;51.744;8.252;2022-10-20T07:44:20;20.40;48.00
45843;DHT22;31563;51.744;8.252;2022-10-20T07:46:48;20.40;47.90
45843;DHT22;31563;51.744;8.252;2022-10-20T07:49:16;20.50;48.00
45843;DHT22;31563;51.744;8.252;2022-10-20T07:52:06;20.50;47.60
45843;DHT22;31563;51.744;8.252;2022-10-20T07:54:34;20.60;47.80
45843;DHT22;31563;51.744;8.252;2022-10-20T07:57:02;20.70;47.70
45843;DHT22;31563;51.744;8.252;2022-10-20T07:59:30;20.70;47.50
45843;DHT22;31563;51.744;8.252;2022-10-20T08:01:58;20.80;47.30
45843;DHT22;31563;51.744;8.252;2022-10-20T08:04:27;20.80;47.30
45843;DHT22;31563;51.744;8.252;2022-10-20T08:06:58;20.90;47.10
45843;DHT22;31563;51.744;8.252;2022-10-20T08:09:27;21.00;47.10
45843;DHT22;31563;51.744;8.252;2022-10-20T08:11:56;21.10;46.70
45843;DHT22;31563;51.744;8.252;2022-10-20T08:14:24;21.20;46.70
45843;DHT22;31563;51.744;8.252;2022-10-20T08:16:56;21.20;46.60
45843;DHT22;31563;51.744;8.252;2022-10-20T08:19:26;21.30;46.40
45843;DHT22;31563;51.744;8.252;2022-10-20T08:22:01;21.40;46.30
45843;DHT22;31563;51.744;8.252;2022-10-20T08:24:30;21.60;46.30
45843;DHT22;31563;51.744;8.252;2022-10-20T08:26:59;21.70;46.10
45843;DHT22;31563;51.744;8.252;2022-10-20T08:29:27;21.80;46.00
45843;DHT22;31563;51.744;8.252;2022-10-20T08:31:56;21.90;45.70
45843;DHT22;31563;51.744;8.252;2022-10-20T08:34:24;22.00;45.60
45843;DHT22;31563;51.744;8.252;2022-10-20T08:36:52;22.10;45.60
45843;DHT22;31563;51.744;8.252;2022-10-20T08:39:20;22.20;45.40
45843;DHT22;31563;51.744;8.252;2022-10-20T08:41:50;22.20;45.40
45843;DHT22;31563;51.744;8.252;2022-10-20T08:44:35;22.30;45.10
45843;DHT22;31563;51.744;8.252;2022-10-20T08:47:06;22.40;45.00
45843;DHT22;31563;51.744;8.252;2022-10-20T08:49:43;22.50;44.90
45843;DHT22;31563;51.744;8.252;2022-10-20T08:52:12;22.70;44.50
45843;DHT22;31563;51.744;8.252;2022-10-20T08:54:41;22.80;44.40
45843;DHT22;31563;51.744;8.252;2022-10-20T08:57:20;22.90;44.30
45843;DHT22;31563;51.744;8.252;2022-10-20T08:59:51;23.00;44.10
45843;DHT22;31563;51.744;8.252;2022-10-20T09:02:20;23.20;44.10
45843;DHT22;31563;51.744;8.252;2022-10-20T09:04:51;23.40;43.60
45843;DHT22;31563;51.744;8.252;2022-10-20T09:07:26;23.70;43.30
45843;DHT22;31563;51.744;8.252;2022-10-20T09:10:02;24.00;42.80
45843;DHT22;31563;51.744;8.252;2022-10-20T09:12:33;24.10;42.40
45843;DHT22;31563;51.744;8.252;2022-10-20T09:15:01;24.10;42.40
45843;DHT22;31563;51.744;8.252;2022-10-20T09:17:30;24.10;42.20
45843;DHT22;31563;51.744;8.252;2022-10-20T09:19:58;24.20;42.30
45843;DHT22;31563;51.744;8.252;2022-10-20T09:22:28;24.40;42.30
45843;DHT22;31563;51.744;8.252;2022-10-20T09:25:02;24.80;42.00
45843;DHT22;31563;51.744;8.252;2022-10-20T09:27:34;25.30;41.50
45843;DHT22;31563;51.744;8.252;2022-10-20T09:30:15;25.50;40.60
45843;DHT22;31563;51.744;8.252;2022-10-20T09:32:43;25.60;40.50
45843;DHT22;31563;51.744;8.252;2022-10-20T09:35:22;25.70;40.40
45843;DHT22;31563;51.744;8.252;2022-10-20T09:37:58;26.00;40.50
45843;DHT22;31563;51.744;8.252;2022-10-20T09:40:28;26.20;39.90
45843;DHT22;31563;51.744;8.252;2022-10-20T09:42:59;26.50;39.90
45843;DHT22;31563;51.744;8.252;2022-10-20T09:45:30;26.60;39.40
45843;DHT22;31563;51.744;8.252;2022-10-20T09:48:02;26.80;39.50
45843;DHT22;31563;51.744;8.252;2022-10-20T09:50:35;26.80;39.20
45843;DHT22;31563;51.744;8.252;2022-10-20T09:53:05;26.80;39.60
45843;DHT22;31563;51.744;8.252;2022-10-20T09:55:36;26.90;39.30
45843;DHT22;31563;51.744;8.252;2022-10-20T09:58:15;26.80;39.00
45843;DHT22;31563;51.744;8.252;2022-10-20T10:00:55;26.80;39.50
45843;DHT22;31563;51.744;8.252;2022-10-20T10:03:24;27.00;39.10
45843;DHT22;31563;51.744;8.252;2022-10-20T10:05:53;27.10;39.40
45843;DHT22;31563;51.744;8.252;2022-10-20T10:08:23;27.40;39.40
45843;DHT22;31563;51.744;8.252;2022-10-20T10:11:04;28.30;38.80
45843;DHT22;31563;51.744;8.252;2022-10-20T10:13:44;28.90;38.70
45843;DHT22;31563;51.744;8.252;2022-10-20T10:16:16;29.40;37.30
45843;DHT22;31563;51.744;8.252;2022-10-20T10:18:46;29.00;36.80
45843;DHT22;31563;51.744;8.252;2022-10-20T10:21:21;28.60;37.00
45843;DHT22;31563;51.744;8.252;2022-10-20T10:23:51;28.30;37.40
45843;DHT22;31563;51.744;8.252;2022-10-20T10:26:40;28.10;37.80
45843;DHT22;31563;51.744;8.252;2022-10-20T10:29:18;27.90;37.70
45843;DHT22;31563;51.744;8.252;2022-10-20T10:31:51;27.70;37.90
45843;DHT22;31563;51.744;8.252;2022-10-20T10:37:11;27.40;38.20
45843;DHT22;31563;51.744;8.252;2022-10-20T10:39:41;27.30;38.40
45843;DHT22;31563;51.744;8.252;2022-10-20T10:42:27;27.20;38.60
45843;DHT22;31563;51.744;8.252;2022-10-20T10:45:07;27.20;38.80
45843;DHT22;31563;51.744;8.252;2022-10-20T10:47:56;27.20;38.90
45843;DHT22;31563;51.744;8.252;2022-10-20T10:50:29;27.20;39.00
45843;DHT22;31563;51.744;8.252;2022-10-20T10:53:12;27.30;39.20
45843;DHT22;31563;51.744;8.252;2022-10-20T10:55:47;27.40;39.10
45843;DHT22;31563;51.744;8.252;2022-10-20T10:58:28;27.60;39.10
45843;DHT22;31563;51.744;8.252;2022-10-20T11:01:12;27.70;38.80
45843;DHT22;31563;51.744;8.252;2022-10-20T11:06:47;27.80;39.30
45843;DHT22;31563;51.744;8.252;2022-10-20T11:09:27;27.90;38.80
45843;DHT22;31563;51.744;8.252;2022-10-20T11:14:59;27.80;38.30
45843;DHT22;31563;51.744;8.252;2022-10-20T11:17:45;27.60;38.40
45843;DHT22;31563;51.744;8.252;2022-10-20T11:20:23;27.50;38.60
45843;DHT22;31563;51.744;8.252;2022-10-20T11:23:20;27.40;38.70
45843;DHT22;31563;51.744;8.252;2022-10-20T11:25:54;27.20;38.80
45843;DHT22;31563;51.744;8.252;2022-10-20T11:28:28;27.10;39.10
45843;DHT22;31563;51.744;8.252;2022-10-20T11:30:58;26.90;39.20
45843;DHT22;31563;51.744;8.252;2022-10-20T11:33:38;26.80;39.30
45843;DHT22;31563;51.744;8.252;2022-10-20T11:36:15;26.70;39.40
45843;DHT22;31563;51.744;8.252;2022-10-20T11:38:48;26.50;39.60
45843;DHT22;31563;51.744;8.252;2022-10-20T11:41:21;26.50;39.80
45843;DHT22;31563;51.744;8.252;2022-10-20T11:43:56;26.40;40.00
45843;DHT22;31563;51.744;8.252;2022-10-20T11:46:31;26.40;40.20
45843;DHT22;31563;51.744;8.252;2022-10-20T11:49:02;26.40;40.20
45843;DHT22;31563;51.744;8.252;2022-10-20T11:51:52;26.40;40.40
45843;DHT22;31563;51.744;8.252;2022-10-20T11:54:36;26.40;40.50
45843;DHT22;31563;51.744;8.252;2022-10-20T11:57:16;26.50;40.50
45843;DHT22;31563;51.744;8.252;2022-10-20T12:00:12;26.50;40.40
45843;DHT22;31563;51.744;8.252;2022-10-20T12:02:59;26.40;40.40
45843;DHT22;31563;51.744;8.252;2022-10-20T12:05:47;26.40;40.40
45843;DHT22;31563;51.744;8.252;2022-10-20T12:08:31;26.40;40.50
45843;DHT22;31563;51.744;8.252;2022-10-20T12:11:07;26.30;41.10
45843;DHT22;31563;51.744;8.252;2022-10-20T12:13:46;26.20;40.60
45843;DHT22;31563;51.744;8.252;2022-10-20T12:17:02;26.10;40.70
45843;DHT22;31563;51.744;8.252;2022-10-20T12:19:32;26.00;40.70
45843;DHT22;31563;51.744;8.252;2022-10-20T12:22:05;25.90;40.90
45843;DHT22;31563;51.744;8.252;2022-10-20T12:24:35;25.80;40.90
45843;DHT22;31563;51.744;8.252;2022-10-20T12:27:25;25.70;41.00
45843;DHT22;31563;51.744;8.252;2022-10-20T12:30:04;25.60;41.10
45843;DHT22;31563;51.744;8.252;2022-10-20T12:32:54;25.50;41.30
45843;DHT22;31563;51.744;8.252;2022-10-20T12:38:21;25.30;41.60
45843;DHT22;31563;51.744;8.252;2022-10-20T12:40:56;25.20;41.80
45843;DHT22;31563;51.744;8.252;2022-10-20T12:43:31;25.10;42.00
45843;DHT22;31563;51.744;8.252;2022-10-20T12:46:08;25.10;42.10
45843;DHT22;31563;51.744;8.252;2022-10-20T12:48:44;25.00;42.30
45843;DHT22;31563;51.744;8.252;2022-10-20T12:51:20;25.00;42.70
45843;DHT22;31563;51.744;8.252;2022-10-20T12:53:57;24.90;42.70
45843;DHT22;31563;51.744;8.252;2022-10-20T12:56:32;24.90;42.80
45843;DHT22;31563;51.744;8.252;2022-10-20T12:59:21;24.80;42.90
45843;DHT22;31563;51.744;8.252;2022-10-20T13:02:28;24.80;43.00
45843;DHT22;31563;51.744;8.252;2022-10-20T13:04:59;24.70;43.20
45843;DHT22;31563;51.744;8.252;2022-10-20T13:07:58;24.60;43.30
45843;DHT22;31563;51.744;8.252;2022-10-20T13:10:30;24.50;43.30
45843;DHT22;31563;51.744;8.252;2022-10-20T13:16:16;24.40;43.60
45843;DHT22;31563;51.744;8.252;2022-10-20T13:18:47;24.40;43.80
45843;DHT22;31563;51.744;8.252;2022-10-20T13:21:28;24.40;43.80
45843;DHT22;31563;51.744;8.252;2022-10-20T13:24:10;24.40;43.90
45843;DHT22;31563;51.744;8.252;2022-10-20T13:26:52;24.30;43.90
45843;DHT22;31563;51.744;8.252;2022-10-20T13:29:27;24.30;43.90
45843;DHT22;31563;51.744;8.252;2022-10-20T13:32:14;24.20;44.00
45843;DHT22;31563;51.744;8.252;2022-10-20T13:34:47;24.20;44.10
45843;DHT22;31563;51.744;8.252;2022-10-20T13:37:47;24.10;44.20
45843;DHT22;31563;51.744;8.252;2022-10-20T13:40:24;24.10;44.20
45843;DHT22;31563;51.744;8.252;2022-10-20T13:43:13;24.00;44.30
45843;DHT22;31563;51.744;8.252;2022-10-20T13:45:58;24.00;44.40
45843;DHT22;31563;51.744;8.252;2022-10-20T13:48:39;23.90;44.40
45843;DHT22;31563;51.744;8.252;2022-10-20T13:51:14;23.90;44.50
45843;DHT22;31563;51.744;8.252;2022-10-20T13:53:48;23.90;44.60
45843;DHT22;31563;51.744;8.252;2022-10-20T13:56:20;23.80;44.70
45843;DHT22;31563;51.744;8.252;2022-10-20T13:58:59;23.80;44.70
45843;DHT22;31563;51.744;8.252;2022-10-20T14:01:33;23.70;44.60
45843;DHT22;31563;51.744;8.252;2022-10-20T14:04:13;23.70;44.70
45843;DHT22;31563;51.744;8.252;2022-10-20T14:06:46;23.70;44.70
45843;DHT22;31563;51.744;8.252;2022-10-20T14:09:16;23.70;44.90
45843;DHT22;31563;51.744;8.252;2022-10-20T14:11:46;23.60;44.90
45843;DHT22;31563;51.744;8.252;2022-10-20T14:14:16;23.60;45.00
45843;DHT22;31563;51.744;8.252;2022-10-20T14:16:50;23.60;45.70
45843;DHT22;31563;51.744;8.252;2022-10-20T14:19:20;23.50;45.00
45843;DHT22;31563;51.744;8.252;2022-10-20T14:21:49;23.50;45.10
45843;DHT22;31563;51.744;8.252;2022-10-20T14:24:27;23.50;45.10
45843;DHT22;31563;51.744;8.252;2022-10-20T14:26:56;23.50;45.20
45843;DHT22;31563;51.744;8.252;2022-10-20T14:29:36;23.40;45.30
45843;DHT22;31563;51.744;8.252;2022-10-20T14:32:06;23.40;45.40
45843;DHT22;31563;51.744;8.252;2022-10-20T14:34:35;23.40;45.40
45843;DHT22;31563;51.744;8.252;2022-10-20T14:37:06;23.30;45.40
45843;DHT22;31563;51.744;8.252;2022-10-20T14:39:49;23.30;45.40
45843;DHT22;31563;51.744;8.252;2022-10-20T14:42:22;23.30;45.50
45843;DHT22;31563;51.744;8.252;2022-10-20T14:44:53;23.30;45.50
45843;DHT22;31563;51.744;8.252;2022-10-20T14:47:23;23.30;45.60
45843;DHT22;31563;51.744;8.252;2022-10-20T14:49:54;23.30;45.70
45843;DHT22;31563;51.744;8.252;2022-10-20T14:52:33;23.30;45.60
45843;DHT22;31563;51.744;8.252;2022-10-20T14:55:29;23.30;45.60
45843;DHT22;31563;51.744;8.252;2022-10-20T14:57:58;23.20;45.60
45843;DHT22;31563;51.744;8.252;2022-10-20T15:00:31;23.20;45.70
45843;DHT22;31563;51.744;8.252;2022-10-20T15:03:02;23.10;45.70
45843;DHT22;31563;51.744;8.252;2022-10-20T15:05:38;23.10;45.80
45843;DHT22;31563;51.744;8.252;2022-10-20T15:08:13;23.10;45.90
45843;DHT22;31563;51.744;8.252;2022-10-20T15:10:43;23.10;46.00
45843;DHT22;31563;51.744;8.252;2022-10-20T15:13:24;23.10;46.10
45843;DHT22;31563;51.744;8.252;2022-10-20T15:15:56;23.00;46.00
45843;DHT22;31563;51.744;8.252;2022-10-20T15:18:25;23.00;46.00
45843;DHT22;31563;51.744;8.252;2022-10-20T15:20:55;23.00;46.10
45843;DHT22;31563;51.744;8.252;2022-10-20T15:23:24;23.00;46.10
45843;DHT22;31563;51.744;8.252;2022-10-20T15:25:54;22.90;46.20
45843;DHT22;31563;51.744;8.252;2022-10-20T15:28:32;22.90;46.30
45843;DHT22;31563;51.744;8.252;2022-10-20T15:31:05;22.90;46.30
45843;DHT22;31563;51.744;8.252;2022-10-20T15:33:33;22.90;46.30
45843;DHT22;31563;51.744;8.252;2022-10-20T15:36:02;22.80;46.30
45843;DHT22;31563;51.744;8.252;2022-10-20T15:38:30;22.80;46.40
45843;DHT22;31563;51.744;8.252;2022-10-20T15:40:59;22.80;46.50
45843;DHT22;31563;51.744;8.252;2022-10-20T15:43:28;22.70;46.50
45843;DHT22;31563;51.744;8.252;2022-10-20T15:45:56;22.70;46.50
45843;DHT22;31563;51.744;8.252;2022-10-20T15:48:25;22.70;46.60
45843;DHT22;31563;51.744;8.252;2022-10-20T15:50:55;22.60;46.70
45843;DHT22;31563;51.744;8.252;2022-10-20T15:53:24;22.60;46.90
45843;DHT22;31563;51.744;8.252;2022-10-20T15:55:52;22.60;46.80
45843;DHT22;31563;51.744;8.252;2022-10-20T15:58:21;22.50;46.90
45843;DHT22;31563;51.744;8.252;2022-10-20T16:00:49;22.50;46.90
45843;DHT22;31563;51.744;8.252;2022-10-20T16:03:17;22.50;47.00
45843;DHT22;31563;51.744;8.252;2022-10-20T16:05:47;22.40;47.10
45843;DHT22;31563;51.744;8.252;2022-10-20T16:08:15;22.40;47.10
45843;DHT22;31563;51.744;8.252;2022-10-20T16:10:43;22.40;47.10
45843;DHT22;31563;51.744;8.252;2022-10-20T16:13:11;22.40;47.20
45843;DHT22;31563;51.744;8.252;2022-10-20T16:15:41;22.30;47.30
45843;DHT22;31563;51.744;8.252;2022-10-20T16:18:09;22.30;47.30
45843;DHT22;31563;51.744;8.252;2022-10-20T16:20:37;22.30;47.30
45843;DHT22;31563;51.744;8.252;2022-10-20T16:23:07;22.30;47.40
45843;DHT22;31563;51.744;8.252;2022-10-20T16:25:38;22.20;47.40
45843;DHT22;31563;51.744;8.252;2022-10-20T16:28:06;22.20;47.50
45843;DHT22;31563;51.744;8.252;2022-10-20T16:30:34;22.20;47.60
45843;DHT22;31563;51.744;8.252;2022-10-20T16:33:02;22.20;47.60
45843;DHT22;31563;51.744;8.252;2022-10-20T16:35:30;22.20;47.70
45843;DHT22;31563;51.744;8.252;2022-10-20T16:37:59;22.10;47.70
45843;DHT22;31563;51.744;8.252;2022-10-20T16:40:28;22.10;47.80